Jezyk polski English Nederlands Portuguese Spanish
Promoted fansite
Facebook Twitter Tibia Tunnel

2250
12430
4600
Share exp with lvls 280-632

Arcyfana

Check at Tibia.com
Nationality: - Set nationality
Sex: Female Female
Vocation: Elder Druid
Level: 421 (~1,226,036,000exp)
Achievements points: 341
World: Candia
Residence: Roshamuul
Last login: 15-01-2018 06:07
Account status: Premium Account
Online: offline
Last month Current month Current week Mon Tue Wed Thu Fri Sat Sun
47h 15min 329h 15min 71h 9h 45min 3h 11h 15min 8h 8h 45min 16h 30min 13h 45min

Skill Position
Experience:421185
Magic level:10099
Ranking points* 696

# When Time online Lvl
12 07-05-2017 21h 15min 270

# When Killed by Lvl Exp lost(*)
1 05-04-2017 23:05 a dawnfire asura 213 -1,741,462
2 05-04-2017 16:42 a serpent spawn 212 -1,718,372
3 12-04-2017 18:59 a retching horror 224 -2,009,171
4 11-04-2017 16:11 a midnight asura 223 -1,983,778
5 10-04-2017 19:55 a midnight asura 222 -1,958,598
6 16-04-2017 01:41 a retching horror 230 -2,166,072
7 15-04-2017 20:39 a dawnfire asura 231 -2,192,988
8 26-04-2017 22:51 a thorn steed 250 -2,747,421
9 05-05-2017 22:34 a midnight asura 259 -3,039,683
10 05-05-2017 15:38 a midnight asura 256 -2,940,078
11 04-05-2017 01:22 a dawnfire asura 254 -2,874,894
12 28-05-2017 16:41 a dark torturer 294 -4,371,912
13 28-05-2017 12:16 a choking fear 293 -4,329,310
14 27-05-2017 15:33 a moohtant 292 -4,286,984
15 22-05-2017 21:14 Gaz'haragoth 287 -4,079,477
16 22-05-2017 20:15 a choking fear 287 -4,079,477
17 21-05-2017 22:06 a humorless fungus 287 -4,079,477
18 16-05-2017 20:58 a blightwalker 282 -3,878,757
19 13-05-2017 15:46 a juggernaut 277 -3,684,713
20 02-06-2017 21:43 a demon outcast 300 -4,633,394
21 30-05-2017 13:35 a behemoth 295 -4,414,793
22 30-05-2017 12:21 a drillworm 295 -4,414,793
23 08-06-2017 03:18 a glooth powered minotaur 305 -4,859,075
24 06-06-2017 00:43 a demon outcast 305 -4,859,075
25 15-06-2017 10:33 a glooth blob 311 -5,139,396
26 01-07-2017 19:54 energy 332 -6,204,890
27 30-06-2017 11:42 a blightwalker 321 -5,630,142
28 24-07-2017 01:44 a retching horror 351 -7,287,240
29 23-07-2017 18:23 a retching horror 351 -7,287,240
30 20-07-2017 20:48 energy 349 -7,167,821
31 19-07-2017 18:59 fire 348 -7,108,603
32 19-07-2017 18:17 fire 348 -7,108,603
33 19-07-2017 00:20 fire 348 -7,108,603
34 18-07-2017 17:01 a pit blackling 347 -7,049,711
35 18-07-2017 00:26 earth 346 -6,991,145
36 17-07-2017 13:04 earth 345 -6,932,903
37 16-07-2017 20:01 fire 345 -6,932,903
38 15-07-2017 18:36 a behemoth 344 -6,874,985
39 15-07-2017 13:15 earth 344 -6,874,985
40 13-07-2017 21:40 energy 343 -6,817,390
41 13-07-2017 12:57 an insectoid worker 343 -6,817,390
42 12-07-2017 23:18 fire 343 -6,817,390
43 12-07-2017 18:18 a devourer 343 -6,817,390
44 12-07-2017 01:00 fire 343 -6,817,390
45 11-07-2017 22:16 fire 342 -6,760,116
46 11-07-2017 00:53 fire 341 -6,703,164
47 09-07-2017 12:53 a glooth golem 342 -6,760,116
48 08-07-2017 23:47 fire 342 -6,760,116
49 08-07-2017 20:27 a devourer 342 -6,760,116
50 08-07-2017 17:54 fire 342 -6,760,116
51 07-07-2017 20:57 fire 342 -6,760,116
52 07-07-2017 13:21 fire 341 -6,703,164
53 06-07-2017 21:21 a glooth anemone 341 -6,703,164
54 06-07-2017 20:40 fire 341 -6,703,164
55 05-07-2017 16:22 fire 341 -6,703,164
56 05-07-2017 16:02 fire 341 -6,703,164
57 05-07-2017 02:06 fire 340 -6,646,532
58 05-07-2017 00:10 fire 340 -6,646,532
59 04-07-2017 20:43 fire 340 -6,646,532
60 04-07-2017 18:23 energy 340 -6,646,532
61 03-07-2017 20:20 a pit reaver 340 -6,646,532
62 03-07-2017 03:54 a pit blackling 338 -6,534,224
63 02-07-2017 23:22 death 338 -6,534,224
64 02-07-2017 16:04 death 335 -6,368,141
65 02-07-2017 13:14 a pit reaver 334 -6,313,410
66 01-07-2017 20:55 a pit reaver 333 -6,258,994
67 05-08-2017 00:24 an elder wyrm 362 -7,967,769
68 02-08-2017 15:26 a choking fear 359 -7,778,153
69 02-08-2017 06:16 a barkless devotee 360 -7,841,021
70 01-08-2017 20:21 death 359 -7,778,153
71 01-08-2017 17:30 death 359 -7,778,153
72 31-07-2017 22:58 a pit blackling 359 -7,778,153
73 31-07-2017 21:11 fire 359 -7,778,153
74 31-07-2017 18:40 energy 358 -7,715,621
75 31-07-2017 01:09 earth 355 -7,530,035
76 30-07-2017 16:25 a high voltage elemental 354 -7,468,839
77 30-07-2017 13:45 death 354 -7,468,839
78 29-07-2017 22:37 death 354 -7,468,839
79 29-07-2017 18:40 a glooth bandit 354 -7,468,839
80 28-07-2017 21:17 earth 354 -7,468,839
81 26-07-2017 21:49 death 354 -7,468,839
82 26-07-2017 20:58 a pit blackling 354 -7,468,839
83 24-07-2017 23:07 energy 352 -7,347,443
84 24-07-2017 22:29 energy 352 -7,347,443
85 18-08-2017 22:20 earth 369 -8,422,115
86 17-08-2017 14:16 a trap 369 -8,422,115
87 16-08-2017 19:28 a devourer 367 -8,290,589
88 15-08-2017 05:34 a drillworm 366 -8,225,342
89 15-08-2017 05:28 a devourer 366 -8,225,342
90 09-08-2017 01:22 a high voltage elemental 363 -8,031,652
91 06-08-2017 23:58 death 363 -8,031,652
92 06-08-2017 19:54 earth 363 -8,031,652
93 25-08-2017 19:39 energy 377 -8,962,103
94 24-08-2017 00:43 a pit blackling 374 -8,756,988
95 23-08-2017 15:39 fire 373 -8,689,318
96 20-08-2017 01:38 an elder wyrm 370 -8,488,395
97 19-08-2017 16:22 a glooth anemone 370 -8,488,395
98 01-09-2017 04:08 death 382 -9,311,022
99 01-09-2017 02:36 earth 382 -9,311,022
100 01-09-2017 02:13 death 382 -9,311,022
101 30-08-2017 06:26 a pit blackling 381 -9,240,528
102 28-08-2017 01:15 an elder wyrm 380 -9,170,390
103 07-09-2017 01:39 energy 388 -9,741,517
104 07-09-2017 00:05 energy 387 -9,668,867
105 06-09-2017 23:48 a pit blackling 387 -9,668,867
106 06-09-2017 00:28 earth 387 -9,668,867
107 05-09-2017 23:58 death 387 -9,668,867
108 05-09-2017 22:52 fire 386 -9,596,579
109 05-09-2017 16:12 earth 386 -9,596,579
110 05-09-2017 10:03 death 385 -9,524,651
111 04-09-2017 20:00 energy 385 -9,524,651
112 04-09-2017 19:31 death 385 -9,524,651
113 04-09-2017 18:55 earth 385 -9,524,651
114 04-09-2017 17:09 death 385 -9,524,651
115 04-09-2017 16:39 energy 385 -9,524,651
116 04-09-2017 14:14 earth 385 -9,524,651
117 03-09-2017 01:56 earth 385 -9,524,651
118 03-09-2017 01:05 death 385 -9,524,651
119 03-09-2017 00:38 energy 385 -9,524,651
120 11-09-2017 02:42 a pit blackling 394 -10,185,057
121 11-09-2017 01:22 a glooth anemone 395 -10,260,263
122 11-09-2017 00:58 a glooth golem 395 -10,260,263
123 10-09-2017 22:13 a glooth anemone 394 -10,185,057
124 10-09-2017 21:40 earth 394 -10,185,057
125 10-09-2017 21:16 an elder wyrm 393 -10,110,220
126 10-09-2017 04:44 energy 393 -10,110,220
127 10-09-2017 03:49 earth 392 -10,035,749
128 10-09-2017 02:58 death 391 -9,961,644
129 09-09-2017 16:26 energy 390 -9,887,904
130 09-09-2017 01:26 a war golem 391 -9,961,644
131 08-09-2017 17:31 a glooth anemone 390 -9,887,904
132 08-09-2017 17:09 energy 390 -9,887,904
133 08-09-2017 16:51 energy 390 -9,887,904
134 08-09-2017 16:09 earth 389 -9,814,529
135 08-09-2017 15:50 earth 389 -9,814,529
136 08-09-2017 15:07 earth 389 -9,814,529
137 08-09-2017 14:52 earth 389 -9,814,529
138 08-09-2017 13:54 earth 388 -9,741,517
139 23-11-2017 22:30 death 394 -10,185,057
140 26-11-2017 00:23 a grim reaper 395 -10,260,263
141 01-01-2018 03:28 a quara predator 412 -11,595,902
142 30-12-2017 02:17 charging Outburst 412 -11,595,902
143 30-12-2017 00:01 a demon outcast 413 -11,677,882
144 26-12-2017 19:56 death 408 -11,271,814
145 26-12-2017 18:00 earth 408 -11,271,814
146 26-12-2017 17:32 earth 408 -11,271,814
147 26-12-2017 16:20 death 408 -11,271,814
148 26-12-2017 07:31 fire 408 -11,271,814
149 26-12-2017 06:29 earth 408 -11,271,814
150 26-12-2017 02:02 a pit reaver 406 -11,112,056
151 25-12-2017 16:44 earth 402 -10,797,075
152 25-12-2017 14:05 fire 401 -10,719,270
153 25-12-2017 13:39 death 401 -10,719,270
154 25-12-2017 01:48 death 401 -10,719,270
155 25-12-2017 01:32 earth 401 -10,719,270
156 24-12-2017 00:45 energy 399 -10,564,781
157 23-12-2017 23:37 earth 399 -10,564,781
158 23-12-2017 22:59 earth 399 -10,564,781
159 23-12-2017 20:02 earth 399 -10,564,781
160 23-12-2017 19:41 earth 399 -10,564,781
161 23-12-2017 16:59 earth 398 -10,488,095
162 18-12-2017 19:09 a glooth anemone 397 -10,411,781
163 16-12-2017 14:34 a glooth anemone 397 -10,411,781

Number of death: 163
Experience lost: 1,280,013,558
Level of character without dying: 533
Killed by players: 0

No blacklist entries.


Login to add report

Search guild or character